createdAt,value
2022-11-23T00:00:39.627Z,99555.59
2022-11-23T00:03:07.511Z,99565.78
2022-11-23T00:05:35.712Z,99548.81
2022-11-23T00:08:03.607Z,99561.22
2022-11-23T00:10:32.898Z,99545.38
2022-11-23T00:13:00.760Z,99549.19
2022-11-23T00:15:28.627Z,99531.66
2022-11-23T00:17:56.499Z,99537.16
2022-11-23T00:20:24.354Z,99546.63
2022-11-23T00:22:52.277Z,99533.94
2022-11-23T00:25:20.150Z,99529.56
2022-11-23T00:27:49.382Z,99521.31
2022-11-23T00:30:17.756Z,99511.84
2022-11-23T00:32:45.617Z,99521.38
2022-11-23T00:35:13.521Z,99515.72
2022-11-23T00:37:41.387Z,99522.66
2022-11-23T00:40:10.815Z,99518.47
2022-11-23T00:42:38.665Z,99520.44
2022-11-23T00:45:09.188Z,99516.75
2022-11-23T00:47:37.021Z,99513.78
2022-11-23T00:50:05.299Z,99514.63
2022-11-23T00:52:33.171Z,99508.81
2022-11-23T00:55:01.035Z,99500.41
2022-11-23T00:57:28.883Z,99514.94
2022-11-23T00:59:56.790Z,99520.97
2022-11-23T01:02:26.112Z,99521.09
2022-11-23T01:04:54.097Z,99512.81
2022-11-23T01:07:22.054Z,99513.44
2022-11-23T01:09:50.030Z,99507.78
2022-11-23T01:12:17.928Z,99500.50
2022-11-23T01:14:45.859Z,99501.34
2022-11-23T01:17:13.817Z,99484.31
2022-11-23T01:19:43.125Z,99478.34
2022-11-23T01:22:11.053Z,99463.34
2022-11-23T01:24:38.996Z,99463.41
2022-11-23T01:27:06.903Z,99457.28
2022-11-23T01:29:35.061Z,99457.13
2022-11-23T01:32:03.288Z,99454.31
2022-11-23T01:34:31.207Z,99443.34
2022-11-23T01:37:00.813Z,99442.41
2022-11-23T01:39:28.812Z,99440.66
2022-11-23T01:41:56.855Z,99438.66
2022-11-23T01:44:30.574Z,99434.53
2022-11-23T01:47:00.604Z,99433.59
2022-11-23T01:49:32.067Z,99426.25
2022-11-23T01:52:05.188Z,99433.59
2022-11-23T01:54:38.017Z,99429.31
2022-11-23T01:57:09.236Z,99435.66
2022-11-23T01:59:37.751Z,99431.91
2022-11-23T02:02:06.443Z,99433.56
2022-11-23T02:04:38.302Z,99422.34
2022-11-23T02:07:08.363Z,99417.28
2022-11-23T02:09:37.458Z,99425.06
2022-11-23T02:12:11.665Z,99408.75
2022-11-23T02:14:39.677Z,99412.16
2022-11-23T02:17:07.737Z,99404.00
2022-11-23T02:19:47.699Z,99394.56
2022-11-23T02:22:25.277Z,99390.63
2022-11-23T02:24:56.369Z,99392.59
2022-11-23T02:27:26.296Z,99379.16
2022-11-23T02:29:56.976Z,99375.97
2022-11-23T02:32:26.116Z,99371.88
2022-11-23T02:34:54.080Z,99370.16
2022-11-23T02:37:22.283Z,99361.53
2022-11-23T02:39:52.328Z,99369.75
2022-11-23T02:42:20.554Z,99362.56
2022-11-23T02:44:57.748Z,99358.88
2022-11-23T02:47:25.845Z,99351.97
2022-11-23T02:49:53.841Z,99352.75
2022-11-23T02:52:21.798Z,99352.28
2022-11-23T02:54:49.772Z,99365.53
2022-11-23T02:57:17.852Z,99364.47
2022-11-23T02:59:45.760Z,99358.69
2022-11-23T03:02:15.081Z,99363.34
2022-11-23T03:04:43.011Z,99366.75
2022-11-23T03:07:11.011Z,99370.09
2022-11-23T03:09:39.006Z,99353.31
2022-11-23T03:12:07.419Z,99359.31
2022-11-23T03:14:35.367Z,99355.97
2022-11-23T03:17:03.279Z,99352.94
2022-11-23T03:19:32.955Z,99355.09
2022-11-23T03:22:01.055Z,99349.91
2022-11-23T03:24:28.987Z,99340.69
2022-11-23T03:26:57.020Z,99335.28
2022-11-23T03:29:26.611Z,99340.25
2022-11-23T03:31:54.688Z,99342.94
2022-11-23T03:34:22.633Z,99339.88
2022-11-23T03:36:52.024Z,99340.84
2022-11-23T03:39:19.956Z,99333.47
2022-11-23T03:41:47.919Z,99335.84
2022-11-23T03:44:15.823Z,99350.81
2022-11-23T03:46:43.732Z,99350.00
2022-11-23T03:49:11.914Z,99349.09
2022-11-23T03:51:39.837Z,99343.88
2022-11-23T03:54:09.472Z,99337.88
2022-11-23T03:56:37.451Z,99322.66
2022-11-23T03:59:05.392Z,99324.03
2022-11-23T04:01:33.348Z,99323.75
2022-11-23T04:04:01.273Z,99329.09
2022-11-23T04:06:29.218Z,99323.06
2022-11-23T04:09:01.734Z,99323.56
2022-11-23T04:11:31.692Z,99319.09
2022-11-23T04:13:59.641Z,99316.81
2022-11-23T04:16:27.559Z,99314.13
2022-11-23T04:18:55.521Z,99318.34
2022-11-23T04:21:23.447Z,99313.84
2022-11-23T04:23:51.402Z,99309.28
2022-11-23T04:26:19.300Z,99306.34
2022-11-23T04:28:48.580Z,99290.75
2022-11-23T04:31:16.492Z,99306.66
2022-11-23T04:33:44.405Z,99314.91
2022-11-23T04:36:12.534Z,99300.38
2022-11-23T04:38:40.473Z,99309.72
2022-11-23T04:41:08.407Z,99314.13
2022-11-23T04:43:36.340Z,99317.03
2022-11-23T04:46:05.910Z,99312.34
2022-11-23T04:48:33.830Z,99312.69
2022-11-23T04:51:01.799Z,99309.81
2022-11-23T04:53:29.730Z,99317.69
2022-11-23T04:55:57.739Z,99321.50
2022-11-23T04:58:26.903Z,99316.44
2022-11-23T05:00:58.348Z,99320.06
2022-11-23T05:03:28.317Z,99339.38
2022-11-23T05:05:59.191Z,99326.56
2022-11-23T05:08:27.165Z,99321.50
2022-11-23T05:10:55.155Z,99326.13
2022-11-23T05:13:23.125Z,99333.53
2022-11-23T05:15:51.256Z,99313.84
2022-11-23T05:18:19.172Z,99318.66
2022-11-23T05:20:48.556Z,99328.41
2022-11-23T05:23:16.648Z,99307.06
2022-11-23T05:25:44.673Z,99323.78
2022-11-23T05:28:39.125Z,99319.94
2022-11-23T05:31:05.692Z,99326.19
2022-11-23T05:33:33.768Z,99320.88
2022-11-23T05:36:03.071Z,99327.84
2022-11-23T05:38:31.003Z,99321.72
2022-11-23T05:40:58.953Z,99319.09
2022-11-23T05:43:27.021Z,99311.78
2022-11-23T05:45:54.946Z,99311.38
2022-11-23T05:48:22.868Z,99313.84
2022-11-23T05:50:51.733Z,99301.78
2022-11-23T05:53:21.173Z,99312.03
2022-11-23T05:55:49.103Z,99317.31
2022-11-23T05:58:17.036Z,99324.88
2022-11-23T06:00:44.949Z,99325.78
2022-11-23T06:03:12.955Z,99322.72
2022-11-23T06:05:40.888Z,99311.59
2022-11-23T06:08:08.872Z,99319.84
2022-11-23T06:10:38.160Z,99322.66
2022-11-23T06:13:06.122Z,99317.19
2022-11-23T06:15:34.041Z,99316.94
2022-11-23T06:18:02.498Z,99322.13
2022-11-23T06:20:30.751Z,99330.69
2022-11-23T06:22:58.672Z,99326.31
2022-11-23T06:25:26.595Z,99335.69
2022-11-23T06:28:00.160Z,99338.66
2022-11-23T06:30:29.884Z,99333.69
2022-11-23T06:32:58.318Z,99333.94
2022-11-23T06:35:26.280Z,99343.06
2022-11-23T06:37:54.913Z,99353.91
2022-11-23T06:40:23.054Z,99349.41
2022-11-23T06:42:51.080Z,99342.44
2022-11-23T06:45:21.479Z,99343.09
2022-11-23T06:47:49.363Z,99344.44
2022-11-23T06:50:17.585Z,99331.53
2022-11-23T06:52:45.505Z,99339.25
2022-11-23T06:55:13.428Z,99342.63
2022-11-23T06:57:41.468Z,99332.59
2022-11-23T07:00:11.681Z,99337.25
2022-11-23T07:02:41.002Z,99339.69
2022-11-23T07:05:09.712Z,99337.31
2022-11-23T07:07:37.794Z,99324.75
2022-11-23T07:10:07.572Z,99316.69
2022-11-23T07:12:35.652Z,99310.38
2022-11-23T07:15:03.631Z,99320.50
2022-11-23T07:17:31.540Z,99308.44
2022-11-23T07:20:01.142Z,99303.25
2022-11-23T07:22:29.126Z,99304.94
2022-11-23T07:24:57.033Z,99304.66
2022-11-23T07:27:24.962Z,99292.00
2022-11-23T07:29:52.928Z,99306.06
2022-11-23T07:32:20.868Z,99309.91
2022-11-23T07:34:48.863Z,99310.78
2022-11-23T07:37:18.149Z,99323.97
2022-11-23T07:40:01.799Z,99326.69
2022-11-23T07:42:34.624Z,99330.94
2022-11-23T07:45:04.562Z,99321.41
2022-11-23T07:47:32.885Z,99323.81
2022-11-23T07:50:00.820Z,99326.03
2022-11-23T07:52:30.127Z,99316.88
2022-11-23T07:54:58.100Z,99325.00
2022-11-23T07:57:26.028Z,99331.72
2022-11-23T07:59:53.975Z,99326.22
2022-11-23T08:02:22.334Z,99344.19
2022-11-23T08:04:50.327Z,99359.25
2022-11-23T08:07:18.297Z,99363.47
2022-11-23T08:09:47.640Z,99372.72
2022-11-23T08:12:15.566Z,99382.88
2022-11-23T08:14:43.804Z,99366.59
2022-11-23T08:17:11.740Z,99384.03
2022-11-23T08:19:39.785Z,99388.00
2022-11-23T08:22:07.831Z,99366.06
2022-11-23T08:24:35.808Z,99376.38
2022-11-23T08:27:05.194Z,99375.69
2022-11-23T08:29:33.129Z,99377.50
2022-11-23T08:32:01.067Z,99367.94
2022-11-23T08:34:29.432Z,99371.25
2022-11-23T08:36:58.261Z,99374.72
2022-11-23T08:39:26.225Z,99373.50
2022-11-23T08:41:54.277Z,99357.84
2022-11-23T08:44:23.560Z,99362.81
2022-11-23T08:46:51.669Z,99371.03
2022-11-23T08:49:19.677Z,99358.25
2022-11-23T08:51:50.234Z,99358.56
2022-11-23T08:54:18.463Z,99358.63
2022-11-23T08:56:46.409Z,99346.03
2022-11-23T08:59:14.420Z,99351.16
2022-11-23T09:01:43.794Z,99350.34
2022-11-23T09:04:16.379Z,99348.16
2022-11-23T09:06:47.171Z,99338.44
2022-11-23T09:09:15.099Z,99339.78
2022-11-23T09:11:43.021Z,99340.91
2022-11-23T09:14:11.033Z,99333.75
2022-11-23T09:16:38.964Z,99330.19
2022-11-23T09:19:08.383Z,99335.84
2022-11-23T09:21:39.233Z,99337.06
2022-11-23T09:24:07.643Z,99328.84
2022-11-23T09:26:37.669Z,99319.63
2022-11-23T09:29:05.820Z,99324.72
2022-11-23T09:31:33.885Z,99315.94
2022-11-23T09:34:01.831Z,99305.63
2022-11-23T09:36:31.420Z,99316.03
2022-11-23T09:38:59.420Z,99313.84
2022-11-23T09:42:03.401Z,99314.81
2022-11-23T09:44:40.217Z,99308.09
2022-11-23T09:47:29.818Z,99307.41
2022-11-23T09:50:04.481Z,99299.34
2022-11-23T09:52:35.065Z,99281.09
2022-11-23T09:55:12.369Z,99311.94
2022-11-23T09:57:44.597Z,99314.84
2022-11-23T10:00:20.434Z,99304.00
2022-11-23T10:02:48.889Z,99312.09
2022-11-23T10:05:19.761Z,99298.09
2022-11-23T10:08:03.470Z,99302.22
2022-11-23T10:10:41.984Z,99294.00
2022-11-23T10:13:29.033Z,99292.34
2022-11-23T10:16:11.281Z,99268.59
2022-11-23T10:18:49.989Z,99275.31
2022-11-23T10:21:25.105Z,99272.72
2022-11-23T10:24:05.723Z,99275.59
2022-11-23T10:26:37.866Z,99276.81
2022-11-23T10:29:14.293Z,99280.94
2022-11-23T10:31:46.950Z,99278.84
2022-11-23T10:34:18.353Z,99271.22
2022-11-23T10:36:46.479Z,99290.41
2022-11-23T10:39:25.016Z,99301.63
2022-11-23T10:41:54.177Z,99295.59
2022-11-23T10:44:31.961Z,99293.41
2022-11-23T10:47:00.887Z,99283.06
2022-11-23T10:49:30.377Z,99284.00
2022-11-23T10:52:00.659Z,99273.69
2022-11-23T10:54:36.483Z,99274.34
2022-11-23T10:57:22.918Z,99261.97
2022-11-23T11:00:00.203Z,99266.75
2022-11-23T11:02:29.241Z,99264.81
2022-11-23T11:05:16.542Z,99265.31
2022-11-23T11:07:44.629Z,99258.84
2022-11-23T11:10:39.582Z,99266.50
2022-11-23T11:13:23.449Z,99274.28
2022-11-23T11:15:56.211Z,99277.97
2022-11-23T11:18:28.863Z,99273.72
2022-11-23T11:21:00.392Z,99263.56
2022-11-23T11:23:30.905Z,99252.75
2022-11-23T11:26:09.532Z,99257.38
2022-11-23T11:28:41.897Z,99262.03
2022-11-23T11:31:31.426Z,99244.53
2022-11-23T11:34:05.786Z,99263.34
2022-11-23T11:36:40.476Z,99256.41
2022-11-23T11:39:19.324Z,99278.47
2022-11-23T11:41:52.648Z,99268.22
2022-11-23T11:44:23.774Z,99284.25
2022-11-23T11:46:59.113Z,99277.91
2022-11-23T11:49:32.548Z,99258.19
2022-11-23T11:52:06.171Z,99280.38
2022-11-23T11:54:41.082Z,99277.91
2022-11-23T11:57:19.280Z,99281.72
2022-11-23T11:59:50.368Z,99280.06
2022-11-23T12:02:25.384Z,99263.44
2022-11-23T12:05:05.115Z,99256.88
2022-11-23T12:07:36.238Z,99262.78
2022-11-23T12:10:10.889Z,99251.19
2022-11-23T12:12:41.048Z,99255.69
2022-11-23T12:15:47.169Z,99269.66
2022-11-23T12:18:48.677Z,99274.63
2022-11-23T12:21:35.569Z,99281.28
2022-11-23T12:24:11.746Z,99293.94
2022-11-23T12:26:52.055Z,99290.44
2022-11-23T12:29:46.930Z,99298.78
2022-11-23T12:32:26.218Z,99307.59
2022-11-23T12:35:13.657Z,99308.16
2022-11-23T12:37:54.223Z,99310.53
2022-11-23T12:40:41.618Z,99316.56
2022-11-23T12:43:15.052Z,99316.19
2022-11-23T12:46:08.254Z,99323.09
2022-11-23T12:48:47.293Z,99327.09
2022-11-23T12:51:25.554Z,99326.00
2022-11-23T12:54:08.657Z,99326.84
2022-11-23T12:56:55.832Z,99333.16
2022-11-23T12:59:26.104Z,99324.81
2022-11-23T13:02:01.280Z,99312.63
2022-11-23T13:04:58.211Z,99328.41
2022-11-23T13:07:50.093Z,99329.50
2022-11-23T13:10:38.379Z,99333.63
2022-11-23T13:13:38.203Z,99332.41
2022-11-23T13:16:38.393Z,99326.09
2022-11-23T13:19:32.031Z,99335.13
2022-11-23T13:22:01.067Z,99333.91
2022-11-23T13:24:31.549Z,99341.44
2022-11-23T13:27:32.326Z,99335.94
2022-11-23T13:30:08.450Z,99341.59
2022-11-23T13:32:47.590Z,99312.09
2022-11-23T13:35:52.078Z,99324.16
2022-11-23T13:38:26.526Z,99321.69
2022-11-23T13:40:55.064Z,99300.16
2022-11-23T13:43:26.424Z,99324.44
2022-11-23T13:46:24.142Z,99325.97
2022-11-23T13:48:57.822Z,99319.50
2022-11-23T13:51:30.394Z,99325.25
2022-11-23T13:54:03.544Z,99321.41
2022-11-23T13:56:34.833Z,99324.00
2022-11-23T13:59:29.050Z,99305.75
2022-11-23T14:02:28.377Z,99295.31
2022-11-23T14:05:29.440Z,99305.91
2022-11-23T14:08:02.847Z,99308.78
2022-11-23T14:10:32.722Z,99339.78
2022-11-23T14:13:06.252Z,99358.59
2022-11-23T14:15:36.805Z,99363.41
2022-11-23T14:18:31.469Z,99377.81
2022-11-23T14:21:05.306Z,99379.84
2022-11-23T14:24:02.220Z,99372.19
2022-11-23T14:26:39.363Z,99384.78
2022-11-23T14:29:30.979Z,99376.28
2022-11-23T14:32:22.898Z,99381.75
2022-11-23T14:34:59.549Z,99367.63
2022-11-23T14:37:37.736Z,99359.28
2022-11-23T14:40:18.747Z,99370.09
2022-11-23T14:42:53.697Z,99363.09
2022-11-23T14:45:24.396Z,99351.97
2022-11-23T14:47:52.381Z,99357.88
2022-11-23T14:50:26.444Z,99358.97
2022-11-23T14:52:54.797Z,99362.28
2022-11-23T14:55:26.726Z,99358.97
2022-11-23T14:57:58.896Z,99358.97
2022-11-23T15:00:33.375Z,99358.16
2022-11-23T15:03:34.416Z,99361.44
2022-11-23T15:06:05.886Z,99366.66
2022-11-23T15:08:41.955Z,99371.88
2022-11-23T15:11:15.414Z,99366.09
2022-11-23T15:13:45.809Z,99379.84
2022-11-23T15:16:15.882Z,99361.31
2022-11-23T15:18:44.864Z,99382.03
2022-11-23T15:21:26.622Z,99381.72
2022-11-23T15:23:58.029Z,99394.00
2022-11-23T15:26:47.435Z,99386.13
2022-11-23T15:29:52.384Z,99394.94
2022-11-23T15:32:35.304Z,99397.22
2022-11-23T15:35:08.103Z,99394.25
2022-11-23T15:37:44.021Z,99407.81
2022-11-23T15:40:14.962Z,99409.75
2022-11-23T15:42:45.495Z,99408.34
2022-11-23T15:45:36.402Z,99423.44
2022-11-23T15:48:06.353Z,99413.00
2022-11-23T15:50:34.545Z,99404.63
2022-11-23T15:53:03.292Z,99397.97
2022-11-23T15:55:31.836Z,99409.34
2022-11-23T15:58:07.706Z,99413.25
2022-11-23T16:00:35.959Z,99409.00
2022-11-23T16:03:29.799Z,99403.09
2022-11-23T16:06:17.073Z,99407.84
2022-11-23T16:08:45.211Z,99407.19
2022-11-23T16:11:28.870Z,99407.69
2022-11-23T16:17:02.852Z,99400.00
2022-11-23T16:19:33.814Z,99415.75
2022-11-23T16:22:06.036Z,99430.97
2022-11-23T16:24:37.283Z,99428.66
2022-11-23T16:27:14.245Z,99424.97
2022-11-23T16:29:43.234Z,99428.28
2022-11-23T16:32:26.054Z,99434.19
2022-11-23T16:34:54.392Z,99435.97
2022-11-23T16:37:23.129Z,99439.69
2022-11-23T16:39:51.314Z,99452.00
2022-11-23T16:42:19.901Z,99449.19
2022-11-23T16:44:47.973Z,99447.72
2022-11-23T16:47:25.900Z,99435.06
2022-11-23T16:49:54.779Z,99448.00
2022-11-23T16:52:24.010Z,99458.97
2022-11-23T16:54:52.913Z,99456.47
2022-11-23T16:57:30.268Z,99454.84
2022-11-23T16:59:59.706Z,99452.59
2022-11-23T17:02:29.347Z,99451.81
2022-11-23T17:04:57.919Z,99470.59
2022-11-23T17:07:26.112Z,99465.78
2022-11-23T17:09:54.218Z,99477.31
2022-11-23T17:12:22.397Z,99471.84
2022-11-23T17:14:51.636Z,99476.81
2022-11-23T17:17:22.423Z,99470.19
2022-11-23T17:19:52.289Z,99490.53
2022-11-23T17:22:21.497Z,99477.75
2022-11-23T17:24:51.637Z,99484.50
2022-11-23T17:27:23.202Z,99487.06
2022-11-23T17:29:57.179Z,99472.38
2022-11-23T17:32:25.337Z,99472.81
2022-11-23T17:34:55.072Z,99480.19
2022-11-23T17:37:25.324Z,99485.84
2022-11-23T17:39:53.449Z,99494.09
2022-11-23T17:42:22.072Z,99504.75
2022-11-23T17:44:50.348Z,99500.63
2022-11-23T17:47:24.079Z,99489.81
2022-11-23T17:49:52.228Z,99515.63
2022-11-23T17:52:21.811Z,99521.16
2022-11-23T17:54:49.982Z,99519.91
2022-11-23T17:57:20.280Z,99523.44
2022-11-23T17:59:48.426Z,99522.75
2022-11-23T18:02:16.843Z,99520.31
2022-11-23T18:04:45.408Z,99513.53
2022-11-23T18:07:15.410Z,99518.41
2022-11-23T18:09:45.030Z,99514.59
2022-11-23T18:12:13.316Z,99522.50
2022-11-23T18:14:41.684Z,99523.31
2022-11-23T18:17:09.832Z,99509.31
2022-11-23T18:19:37.964Z,99531.13
2022-11-23T18:22:06.404Z,99532.25
2022-11-23T18:24:34.682Z,99536.94
2022-11-23T18:27:04.612Z,99542.59
2022-11-23T18:29:33.208Z,99529.22
2022-11-23T18:32:02.353Z,99537.75
2022-11-23T18:34:30.578Z,99525.38
2022-11-23T18:36:59.128Z,99528.19
2022-11-23T18:39:27.197Z,99549.69
2022-11-23T18:41:58.871Z,99550.50
2022-11-23T18:44:31.213Z,99559.69
2022-11-23T18:46:59.653Z,99557.75
2022-11-23T18:49:28.043Z,99567.69
2022-11-23T18:51:56.503Z,99567.09
2022-11-23T18:54:24.673Z,99554.09
2022-11-23T18:56:53.415Z,99568.16
2022-11-23T19:02:13.827Z,99576.53
2022-11-23T19:04:42.024Z,99583.66
2022-11-23T19:07:10.628Z,99580.94
2022-11-23T19:09:39.241Z,99590.16
2022-11-23T19:12:09.029Z,99575.28
2022-11-23T19:14:37.470Z,99596.13
2022-11-23T19:17:05.605Z,99592.09
2022-11-23T19:19:35.825Z,99589.78
2022-11-23T19:22:04.161Z,99586.19
2022-11-23T19:24:32.478Z,99577.75
2022-11-23T19:27:00.872Z,99580.25
2022-11-23T19:29:29.529Z,99579.88
2022-11-23T19:31:57.990Z,99570.47
2022-11-23T19:34:25.990Z,99581.19
2022-11-23T19:36:55.669Z,99582.66
2022-11-23T19:39:24.333Z,99583.59
2022-11-23T19:41:52.658Z,99576.84
2022-11-23T19:44:20.845Z,99571.00
2022-11-23T19:46:49.075Z,99575.38
2022-11-23T19:49:17.778Z,99566.75
2022-11-23T19:51:47.718Z,99544.75
2022-11-23T19:54:18.032Z,99561.81
2022-11-23T19:56:46.213Z,99566.16
2022-11-23T19:59:14.670Z,99573.59
2022-11-23T20:01:42.843Z,99573.59
2022-11-23T20:04:12.119Z,99563.84
2022-11-23T20:06:42.730Z,99570.22
2022-11-23T20:09:12.825Z,99573.22
2022-11-23T20:11:46.852Z,99575.50
2022-11-23T20:14:18.370Z,99570.53
2022-11-23T20:16:47.753Z,99573.72
2022-11-23T20:19:15.959Z,99577.44
2022-11-23T20:21:44.153Z,99573.84
2022-11-23T20:24:14.364Z,99571.25
2022-11-23T20:26:44.553Z,99571.94
2022-11-23T20:29:14.068Z,99578.38
2022-11-23T20:31:42.660Z,99576.38
2022-11-23T20:34:16.694Z,99599.88
2022-11-23T20:36:48.063Z,99597.72
2022-11-23T20:39:16.594Z,99593.94
2022-11-23T20:41:49.453Z,99578.25
2022-11-23T20:44:17.625Z,99603.19
2022-11-23T20:47:01.240Z,99610.75
2022-11-23T20:49:31.577Z,99610.88
2022-11-23T20:51:59.888Z,99610.63
2022-11-23T20:54:28.187Z,99595.97
2022-11-23T20:57:00.386Z,99598.69
2022-11-23T20:59:28.736Z,99601.84
2022-11-23T21:01:56.886Z,99607.28
2022-11-23T21:04:25.218Z,99604.84
2022-11-23T21:06:53.480Z,99590.69
2022-11-23T21:09:21.546Z,99602.47
2022-11-23T21:12:07.023Z,99599.63
2022-11-23T21:14:37.124Z,99583.31
2022-11-23T21:17:06.510Z,99606.88
2022-11-23T21:19:36.329Z,99609.50
2022-11-23T21:22:06.423Z,99600.41
2022-11-23T21:24:35.561Z,99607.72
2022-11-23T21:27:04.678Z,99611.50
2022-11-23T21:29:33.610Z,99597.75
2022-11-23T21:32:03.255Z,99601.28
2022-11-23T21:34:32.611Z,99603.06
2022-11-23T21:37:01.272Z,99590.53
2022-11-23T21:39:31.236Z,99599.38
2022-11-23T21:41:59.836Z,99600.94
2022-11-23T21:44:28.028Z,99595.72
2022-11-23T21:46:56.260Z,99591.28
2022-11-23T21:49:27.926Z,99603.19
2022-11-23T21:51:56.046Z,99593.25
2022-11-23T21:54:24.739Z,99601.16
2022-11-23T21:56:52.815Z,99602.69
2022-11-23T21:59:20.915Z,99612.16
2022-11-23T22:01:49.249Z,99608.63
2022-11-23T22:04:17.410Z,99606.97
2022-11-23T22:06:46.974Z,99603.53
2022-11-23T22:09:15.088Z,99607.81
2022-11-23T22:11:44.422Z,99612.88
2022-11-23T22:14:14.059Z,99609.69
2022-11-23T22:16:43.875Z,99607.81
2022-11-23T22:19:13.176Z,99615.06
2022-11-23T22:21:43.365Z,99615.28
2022-11-23T22:24:15.307Z,99621.19
2022-11-23T22:26:43.781Z,99625.19
2022-11-23T22:29:11.947Z,99628.63
2022-11-23T22:31:40.436Z,99631.34
2022-11-23T22:34:11.464Z,99630.53
2022-11-23T22:36:39.763Z,99630.88
2022-11-23T22:39:09.144Z,99591.00
2022-11-23T22:41:39.103Z,99640.75
2022-11-23T22:44:08.592Z,99636.09
2022-11-23T22:46:39.071Z,99629.84
2022-11-23T22:49:07.875Z,99639.66
2022-11-23T22:51:36.570Z,99626.53
2022-11-23T22:54:05.180Z,99634.69
2022-11-23T22:56:33.602Z,99645.09
2022-11-23T22:59:03.497Z,99638.34
2022-11-23T23:01:32.416Z,99644.88
2022-11-23T23:04:03.013Z,99646.91
2022-11-23T23:06:34.941Z,99638.63
2022-11-23T23:09:05.750Z,99642.22
2022-11-23T23:11:35.485Z,99616.09
2022-11-23T23:14:05.344Z,99639.03
2022-11-23T23:16:33.854Z,99644.22
2022-11-23T23:19:03.661Z,99624.59
2022-11-23T23:21:31.956Z,99624.13
2022-11-23T23:24:02.306Z,99639.25
2022-11-23T23:26:30.965Z,99648.00
2022-11-23T23:29:01.021Z,99645.63
2022-11-23T23:31:31.183Z,99657.47
2022-11-23T23:34:00.692Z,99656.75
2022-11-23T23:36:29.737Z,99656.63
2022-11-23T23:38:58.526Z,99653.00
2022-11-23T23:41:26.642Z,99657.84
2022-11-23T23:43:54.833Z,99657.69
2022-11-23T23:46:23.115Z,99660.56
2022-11-23T23:48:53.145Z,99667.88
2022-11-23T23:51:23.142Z,99668.81
2022-11-23T23:53:52.209Z,99661.72
2022-11-23T23:56:22.429Z,99656.31
2022-11-23T23:58:51.222Z,99655.94
